Time;durP1;ratioP1;P1;durP2;ratioP2;P2;SDS_P1;SDS_P2;PMS_P1;PMS_P2;Temp;Humidity;BMP_temperature;BMP_pressure;BME280_temperature;BME280_humidity;BME280_pressure;Samples;Min_cycle;Max_cycle;Signal;HPM_P1;HPM_P2
2022/09/17 00:00:00;;;;;;;24.13;4.15;;;;;;;;;;5097778;27;20409;-72
2022/09/17 00:02:26;;;;;;;25.67;3.92;;;;;;;;;;5112503;27;20496;-72
2022/09/17 00:04:52;;;;;;;17.83;3.65;;;;;;;;;;5100325;28;20539;-72
2022/09/17 00:07:18;;;;;;;19.67;3.28;;;;;;;;;;5111041;28;20419;-72
2022/09/17 00:09:44;;;;;;;13.23;3.33;;;;;;;;;;5109502;27;20446;-72
2022/09/17 00:12:10;;;;;;;11.37;2.57;;;;;;;;;;5091384;28;20449;-72
2022/09/17 00:14:36;;;;;;;13.77;2.70;;;;;;;;;;5103064;27;20425;-72
2022/09/17 00:17:02;;;;;;;13.50;2.70;;;;;;;;;;5112125;27;20750;-72
2022/09/17 00:19:28;;;;;;;12.93;2.40;;;;;;;;;;5112522;27;20723;-72
2022/09/17 00:21:54;;;;;;;13.30;2.70;;;;;;;;;;5110780;27;20402;-72
2022/09/17 00:24:21;;;;;;;13.93;2.63;;;;;;;;;;5093343;27;20407;-72
2022/09/17 00:26:48;;;;;;;10.70;2.42;;;;;;;;;;5104643;27;20497;-72
2022/09/17 00:29:14;;;;;;;13.07;2.20;;;;;;;;;;5094284;27;20419;-72
2022/09/17 00:31:40;;;;;;;11.38;2.47;;;;;;;;;;5114341;27;20482;-73
2022/09/17 00:34:06;;;;;;;15.25;3.03;;;;;;;;;;5111159;27;20418;-73
2022/09/17 00:36:36;;;;;;;17.92;2.70;;;;;;;;;;5090835;27;20964;-72
2022/09/17 00:39:03;;;;;;;14.97;2.90;;;;;;;;;;5092948;28;20786;-73
2022/09/17 00:41:30;;;;;;;16.07;2.77;;;;;;;;;;5090321;28;20418;-73
2022/09/17 00:43:57;;;;;;;10.93;2.50;;;;;;;;;;5085893;27;20415;-73
2022/09/17 00:46:38;;;;;;;13.95;2.58;;;;;;;;;;5094969;28;20749;-73
2022/09/17 00:49:06;;;;;;;13.95;2.90;;;;;;;;;;5107470;28;20425;-73
2022/09/17 00:51:38;;;;;;;12.00;2.80;;;;;;;;;;5111560;28;20415;-73
2022/09/17 00:54:06;;;;;;;11.48;2.60;;;;;;;;;;5061219;28;20825;-73
2022/09/17 00:56:34;;;;;;;12.45;2.65;;;10.60;99.90;;;;;;5087308;28;20414;-73
2022/09/17 00:59:02;;;;;;;12.60;2.30;;;;;;;;;;5111749;28;20459;-73
2022/09/17 01:01:28;;;;;;;12.70;2.67;;;;;;;;;;5112344;28;20808;-73
2022/09/17 01:03:54;;;;;;;13.55;2.55;;;;;;;;;;5093897;28;20471;-73
2022/09/17 01:06:25;;;;;;;11.60;2.87;;;;;;;;;;5094691;28;20421;-72
2022/09/17 01:09:05;;;;;;;15.30;2.45;;;;;;;;;;5098534;28;20427;-73
2022/09/17 01:11:53;;;;;;;13.20;2.53;;;10.10;99.90;;;;;;5073515;28;20745;-73
2022/09/17 01:14:28;;;;;;;14.98;2.92;;;;;;;;;;5102029;28;20414;-73
2022/09/17 01:17:03;;;;;;;17.88;3.25;;;;;;;;;;5073192;28;20503;-73
2022/09/17 01:19:29;;;;;;;18.27;3.33;;;;;;;;;;5090319;28;20936;-73
2022/09/17 01:22:03;;;;;;;13.25;2.70;;;;;;;;;;5095961;28;20419;-73
2022/09/17 01:24:46;;;;;;;15.77;3.00;;;;;;;;;;5096936;28;20724;-73
2022/09/17 01:27:24;;;;;;;15.65;3.00;;;;;;;;;;5100109;28;20423;-72
2022/09/17 01:30:21;;;;;;;14.45;3.25;;;10.40;99.90;;;;;;5095831;28;20431;-72
2022/09/17 01:32:53;;;;;;;14.98;2.65;;;;;;;;;;5097149;28;20446;-72
2022/09/17 01:35:24;;;;;;;15.05;2.80;;;10.80;99.90;;;;;;5104673;28;20415;-72
2022/09/17 01:38:16;;;;;;;14.00;2.80;;;10.60;99.90;;;;;;5092056;28;20424;-72
2022/09/17 01:41:02;;;;;;;17.33;3.13;;;;;;;;;;5093328;28;20940;-73
2022/09/17 01:43:43;;;;;;;15.77;2.92;;;;;;;;;;5097516;28;20760;-72
2022/09/17 01:46:13;;;;;;;14.07;2.95;;;;;;;;;;5094819;28;20465;-72
2022/09/17 01:48:43;;;;;;;17.40;2.90;;;;;;;;;;5093447;27;20429;-72
2022/09/17 01:51:21;;;;;;;16.85;2.97;;;10.40;99.90;;;;;;5111211;27;20442;-72
2022/09/17 01:53:58;;;;;;;15.50;2.90;;;;;;;;;;5099355;27;20414;-72
2022/09/17 01:56:27;;;;;;;13.00;2.55;;;;;;;;;;5098627;27;20418;-72
2022/09/17 01:59:06;;;;;;;15.55;3.35;;;;;;;;;;5108250;27;20429;-72
2022/09/17 02:01:33;;;;;;;17.07;3.33;;;;;;;;;;5076868;28;20782;-72
2022/09/17 02:04:05;;;;;;;22.25;3.53;;;10.50;99.90;;;;;;5096618;28;20411;-72
2022/09/17 02:06:34;;;;;;;14.43;3.53;;;;;;;;;;5094353;28;20506;-72
2022/09/17 02:09:06;;;;;;;21.13;4.00;;;10.50;99.90;;;;;;5095267;27;20946;-72
2022/09/17 02:11:35;;;;;;;17.55;3.20;;;;;;;;;;5116681;27;20399;-72
2022/09/17 02:14:18;;;;;;;14.68;2.88;;;10.60;99.90;;;;;;5089405;28;20865;-72
2022/09/17 02:16:53;;;;;;;17.45;3.55;;;10.50;99.90;;;;;;5089642;27;20425;-72
2022/09/17 02:19:34;;;;;;;17.00;3.08;;;10.60;99.90;;;;;;5117089;27;20746;-72
2022/09/17 02:22:11;;;;;;;17.05;3.05;;;10.50;99.90;;;;;;5109359;27;20494;-72
2022/09/17 02:24:37;;;;;;;14.88;3.13;;;;;;;;;;5116421;27;20862;-72
2022/09/17 02:27:10;;;;;;;17.13;3.10;;;11.00;99.90;;;;;;5096907;28;20507;-72
2022/09/17 02:29:43;;;;;;;13.38;2.60;;;10.90;99.90;;;;;;5075906;28;20398;-72
2022/09/17 02:32:09;;;;;;;17.27;2.53;;;;;;;;;;5075794;28;20873;-72
2022/09/17 02:34:36;;;;;;;18.27;3.20;;;;;;;;;;5094993;27;20520;-72
2022/09/17 02:37:03;;;;;;;14.52;2.92;;;11.10;99.90;;;;;;5093704;28;20521;-72
2022/09/17 02:39:29;;;;;;;15.33;3.30;;;;;;;;;;5087917;27;20418;-73
2022/09/17 02:42:16;;;;;;;13.23;2.53;;;;;;;;;;5115445;27;20433;-73
2022/09/17 02:44:42;;;;;;;13.32;2.72;;;;;;;;;;5116153;27;20399;-72
2022/09/17 02:47:26;;;;;;;15.93;2.97;;;;;;;;;;5103194;28;20431;-72
2022/09/17 02:49:59;;;;;;;15.43;2.55;;;;;;;;;;5100995;27;20428;-72
2022/09/17 02:52:31;;;;;;;12.38;2.35;;;;;;;;;;5082062;27;20507;-73
2022/09/17 02:55:06;;;;;;;14.75;3.03;;;;;;;;;;5115087;27;20418;-72
2022/09/17 02:57:41;;;;;;;13.90;2.63;;;;;;;;;;5113852;27;20487;-72
2022/09/17 03:00:08;;;;;;;12.50;2.22;;;;;;;;;;5094324;27;20446;-72
2022/09/17 03:02:48;;;;;;;15.55;2.80;;;10.40;99.90;;;;;;5111051;28;20420;-72
2022/09/17 03:05:16;;;;;;;12.85;3.05;;;10.30;99.90;;;;;;5075316;28;20398;-72
2022/09/17 03:07:42;;;;;;;15.68;3.15;;;;;;;;;;5079704;28;20479;-72
2022/09/17 03:10:09;;;;;;;14.00;2.72;;;;;;;;;;5079937;27;20840;-72
2022/09/17 03:12:36;;;;;;;14.35;2.65;;;10.50;99.90;;;;;;5113529;27;20401;-72
2022/09/17 03:15:02;;;;;;;11.75;2.22;;;;;;;;;;5134090;27;20752;-73
2022/09/17 03:17:28;;;;;;;12.70;2.55;;;;;;;;;;5122870;27;20418;-73
2022/09/17 03:19:54;;;;;;;15.55;2.80;;;;;;;;;;5104439;28;20485;-73
2022/09/17 03:22:20;;;;;;;15.40;2.85;;;;;;;;;;5094138;28;20429;-73
2022/09/17 03:24:46;;;;;;;15.43;2.80;;;;;;;;;;5095389;28;20423;-73
2022/09/17 03:27:12;;;;;;;16.25;2.33;;;;;;;;;;5094294;28;20420;-71
2022/09/17 03:29:38;;;;;;;17.13;2.58;;;;;;;;;;5093935;27;20442;-71
2022/09/17 03:32:05;;;;;;;14.40;2.40;;;;;;;;;;5111683;27;20463;-72
2022/09/17 03:34:31;;;;;;;13.95;2.45;;;;;;;;;;5109751;27;20418;-72
2022/09/17 03:36:57;;;;;;;15.00;2.83;;;;;;;;;;5099667;27;20638;-72
2022/09/17 03:39:23;;;;;;;12.53;2.20;;;;;;;;;;5115312;27;20535;-72
2022/09/17 03:41:50;;;;;;;13.75;2.25;;;;;;;;;;5113203;27;20750;-72
2022/09/17 03:44:18;;;;;;;16.50;3.03;;;;;;;;;;5100677;28;20427;-71
2022/09/17 03:46:44;;;;;;;12.48;2.50;;;;;;;;;;5095907;27;20410;-71
2022/09/17 03:49:10;;;;;;;12.05;2.22;;;;;;;;;;5107826;27;20426;-71
2022/09/17 03:51:36;;;;;;;11.30;2.40;;;;;;;;;;5113150;27;20410;-71
2022/09/17 03:54:02;;;;;;;12.57;2.10;;;;;;;;;;5114990;27;20398;-71
2022/09/17 03:56:29;;;;;;;16.23;1.95;;;;;;;;;;5112109;27;20402;-71
2022/09/17 03:58:59;;;;;;;10.13;2.30;;;;;;;;;;5104006;28;20460;-71
2022/09/17 04:01:25;;;;;;;7.22;1.58;;;;;;;;;;5084379;28;20422;-72
2022/09/17 04:03:51;;;;;;;8.57;1.60;;;;;;;;;;5056913;28;20422;-71
2022/09/17 04:06:17;;;;;;;13.10;2.20;;;;;;;;;;5107799;27;20431;-71
2022/09/17 04:08:43;;;;;;;9.57;1.60;;;;;;;;;;5092999;28;20415;-71
2022/09/17 04:11:09;;;;;;;8.45;1.70;;;;;;;;;;5092919;28;20460;-71
2022/09/17 04:13:35;;;;;;;10.23;1.90;;;;;;;;;;5094190;28;20400;-71
2022/09/17 04:16:02;;;;;;;11.20;2.30;;;;;;;;;;5103122;27;20414;-71
2022/09/17 04:18:28;;;;;;;14.68;2.40;;;;;;;;;;5076925;28;20429;-71
2022/09/17 04:20:54;;;;;;;10.27;2.10;;;;;;;;;;5106777;27;20947;-71
2022/09/17 04:23:21;;;;;;;11.35;2.47;;;;;;;;;;5132567;27;20406;-71
2022/09/17 04:25:47;;;;;;;10.17;1.80;;;;;;;;;;5095821;27;20494;-71
2022/09/17 04:28:13;;;;;;;15.52;2.30;;;;;;;;;;5108088;27;20458;-72
2022/09/17 04:30:41;;;;;;;11.63;2.60;;;;;;;;;;5112678;27;20427;-72
2022/09/17 04:33:07;;;;;;;14.00;2.42;;;;;;;;;;5079141;28;20422;-72
2022/09/17 04:35:33;;;;;;;12.80;2.25;;;;;;;;;;5073911;28;20400;-72
2022/09/17 04:38:00;;;;;;;11.98;2.25;;;;;;;;;;5116605;27;20414;-72
2022/09/17 04:40:26;;;;;;;10.60;2.08;;;;;;;;;;5119810;27;20881;-72
2022/09/17 04:43:02;;;;;;;10.98;2.10;;;10.10;99.90;;;;;;5114058;27;20849;-72
2022/09/17 04:45:29;;;;;;;14.00;2.20;;;9.80;99.90;;;;;;5094441;28;20429;-71
2022/09/17 04:47:55;;;;;;;17.13;2.35;;;;;;;;;;5104157;27;20430;-71
2022/09/17 04:50:21;;;;;;;11.45;2.15;;;;;;;;;;5110911;28;20512;-71
2022/09/17 04:52:48;;;;;;;16.80;2.60;;;;;;;;;;5109652;28;20865;-70
2022/09/17 04:55:14;;;;;;;15.65;2.55;;;;;;;;;;5114003;28;20486;-71
2022/09/17 04:57:52;;;;;;;20.30;2.80;;;9.50;99.90;;;;;;5109636;28;20437;-71
2022/09/17 05:00:18;;;;;;;13.57;2.42;;;;;;;;;;5094117;28;20417;-71
2022/09/17 05:02:49;;;;;;;15.90;2.83;;;9.50;99.90;;;;;;5056663;28;20398;-70
2022/09/17 05:05:16;;;;;;;11.30;2.30;;;;;;;;;;5097114;28;20445;-71
2022/09/17 05:07:42;;;;;;;14.40;2.53;;;;;;;;;;5101393;28;20420;-71
2022/09/17 05:10:09;;;;;;;13.30;2.25;;;;;;;;;;5099559;28;20427;-72
2022/09/17 05:12:35;;;;;;;13.27;2.60;;;;;;;;;;5110254;28;20914;-71
2022/09/17 05:15:02;;;;;;;14.18;2.30;;;;;;;;;;5085333;28;20490;-71
2022/09/17 05:17:28;;;;;;;16.73;2.38;;;;;;;;;;5092546;28;20441;-71
2022/09/17 05:19:54;;;;;;;12.97;2.50;;;;;;;;;;5131183;27;20758;-71
2022/09/17 05:22:20;;;;;;;10.52;2.08;;;;;;;;;;5117979;27;20971;-71
2022/09/17 05:24:46;;;;;;;12.02;2.42;;;;;;;;;;5084004;27;20402;-71
2022/09/17 05:27:12;;;;;;;11.70;2.63;;;;;;;;;;5105490;27;20460;-71
2022/09/17 05:29:38;;;;;;;14.20;2.85;;;;;;;;;;5115119;27;20419;-71
2022/09/17 05:32:05;;;;;;;16.05;2.53;;;;;;;;;;5103339;27;20414;-74
2022/09/17 05:34:31;;;;;;;17.63;2.90;;;;;;;;;;5104573;27;20402;-72
2022/09/17 05:36:57;;;;;;;16.85;2.97;;;;;;;;;;5101229;27;20412;-72
2022/09/17 05:39:24;;;;;;;15.70;3.00;;;;;;;;;;5115174;27;20407;-71
2022/09/17 05:41:53;;;;;;;15.38;2.75;;;;;;;;;;5103843;27;20446;-73
2022/09/17 05:44:20;;;;;;;14.88;3.22;;;;;;;;;;5111016;28;20450;-79
2022/09/17 05:46:46;;;;;;;13.80;2.90;;;;;;;;;;5115408;27;20497;-79
2022/09/17 05:49:13;;;;;;;17.45;3.50;;;;;;;;;;5098878;27;20450;-79
2022/09/17 05:51:40;;;;;;;13.52;2.50;;;;;;;;;;5102222;28;20908;-81
2022/09/17 05:54:06;;;;;;;21.50;2.88;;;;;;;;;;5117242;27;20472;-81
2022/09/17 05:56:33;;;;;;;15.82;2.75;;;;;;;;;;5064453;28;20422;-80
2022/09/17 05:58:59;;;;;;;14.00;2.47;;;;;;;;;;5120486;27;20438;-80
2022/09/17 06:01:25;;;;;;;19.38;2.85;;;;;;;;;;5134068;27;20467;-81
2022/09/17 06:03:51;;;;;;;14.27;2.17;;;;;;;;;;5094349;27;20909;-80
2022/09/17 06:06:18;;;;;;;17.42;2.38;;;;;;;;;;5103020;28;20817;-80
2022/09/17 06:08:44;;;;;;;11.85;2.10;;;;;;;;;;5102127;27;20505;-79
2022/09/17 06:11:10;;;;;;;13.75;2.70;;;;;;;;;;5093278;27;20634;-79
2022/09/17 06:13:36;;;;;;;10.15;2.10;;;;;;;;;;5121086;27;20408;-79
2022/09/17 06:16:03;;;;;;;11.27;2.28;;;;;;;;;;5108062;28;20407;-80
2022/09/17 06:18:29;;;;;;;13.57;2.10;;;;;;;;;;5085802;27;20419;-79
2022/09/17 06:20:56;;;;;;;12.27;2.05;;;;;;;;;;5110421;27;20818;-81
2022/09/17 06:23:23;;;;;;;11.10;2.45;;;;;;;;;;5124788;27;20735;-79
2022/09/17 06:25:51;;;;;;;11.57;2.20;;;;;;;;;;5114449;27;20900;-79
2022/09/17 06:28:17;;;;;;;12.00;2.00;;;;;;;;;;5102787;27;20479;-80
2022/09/17 06:30:43;;;;;;;10.90;1.70;;;;;;;;;;5116163;27;20894;-80
2022/09/17 06:33:09;;;;;;;12.60;2.30;;;;;;;;;;5104806;27;20442;-80
2022/09/17 06:35:35;;;;;;;9.38;1.95;;;;;;;;;;5081326;28;20452;-80
2022/09/17 06:38:03;;;;;;;10.02;1.75;;;9.80;99.90;;;;;;5104995;28;20420;-80
2022/09/17 06:40:30;;;;;;;9.55;1.73;;;;;;;;;;5109417;28;20436;-80
2022/09/17 06:42:59;;;;;;;10.90;1.88;;;;;;;;;;5103010;27;20424;-81
2022/09/17 06:45:26;;;;;;;9.48;1.88;;;;;;;;;;5085495;28;20898;-81
2022/09/17 06:47:52;;;;;;;11.75;2.20;;;;;;;;;;5070744;28;20487;-80
2022/09/17 06:50:18;;;;;;;10.38;1.90;;;;;;;;;;5104792;27;20417;-80
2022/09/17 06:52:48;;;;;;;9.57;1.70;;;;;;;;;;5089828;28;20471;-80
2022/09/17 06:55:15;;;;;;;10.32;1.63;;;;;;;;;;5102015;28;20424;-81
2022/09/17 06:57:41;;;;;;;12.50;1.98;;;;;;;;;;5099609;28;20436;-79
2022/09/17 07:00:08;;;;;;;9.40;1.80;;;;;;;;;;5089797;28;20426;-80
2022/09/17 07:02:34;;;;;;;12.15;2.25;;;;;;;;;;5082958;27;20424;-78
2022/09/17 07:05:00;;;;;;;9.80;1.98;;;;;;;;;;5091094;28;20423;-79
2022/09/17 07:07:26;;;;;;;10.43;1.98;;;;;;;;;;5072507;27;20421;-79
2022/09/17 07:09:53;;;;;;;9.63;2.00;;;;;;;;;;5108880;27;20410;-78
2022/09/17 07:12:20;;;;;;;9.63;1.67;;;;;;;;;;5099217;27;20514;-79
2022/09/17 07:14:46;;;;;;;9.25;2.05;;;;;;;;;;5101420;27;20412;-79
2022/09/17 07:17:13;;;;;;;12.02;2.30;;;;;;;;;;5107524;27;20419;-81
2022/09/17 07:19:39;;;;;;;11.15;2.08;;;;;;;;;;5097677;28;20551;-81
2022/09/17 07:22:05;;;;;;;13.27;2.38;;;;;;;;;;5100172;27;20418;-79
2022/09/17 07:24:31;;;;;;;11.13;2.00;;;;;;;;;;5086564;28;20883;-78
2022/09/17 07:26:57;;;;;;;8.57;2.20;;;;;;;;;;5079057;27;20566;-79
2022/09/17 07:29:26;;;;;;;10.00;1.92;;;;;;;;;;5093280;28;20903;-80
2022/09/17 07:31:57;;;;;;;13.10;2.37;;;;;;;;;;5087722;28;20474;-79
2022/09/17 07:34:23;;;;;;;9.02;2.40;;;;;;;;;;5098684;28;20416;-78
2022/09/17 07:36:49;;;;;;;9.23;1.80;;;;;;;;;;5060585;27;20790;-79
2022/09/17 07:39:15;;;;;;;11.32;2.00;;;;;;;;;;5099838;27;20422;-79
2022/09/17 07:41:41;;;;;;;10.68;2.30;;;;;;;;;;5112958;27;20419;-79
2022/09/17 07:44:08;;;;;;;13.43;2.22;;;;;;;;;;5077964;27;20420;-80
2022/09/17 07:46:35;;;;;;;17.50;2.10;;;;;;;;;;5089647;28;20497;-79
2022/09/17 07:49:01;;;;;;;8.90;1.83;;;;;;;;;;5094661;28;20420;-80
2022/09/17 07:51:30;;;;;;;8.87;1.50;;;;;;;;;;5056551;28;20417;-79
2022/09/17 07:53:57;;;;;;;10.43;1.80;;;;;;;;;;5084602;28;20552;-79
2022/09/17 07:56:23;;;;;;;9.50;1.60;;;;;;;;;;5073845;28;20414;-80
2022/09/17 07:58:50;;;;;;;9.52;1.48;;;;;;;;;;5094585;27;20434;-82
2022/09/17 08:01:19;;;;;;;11.20;2.20;;;;;;;;;;5103575;27;20433;-81
2022/09/17 08:03:50;;;;;;;9.60;1.65;;;;;;;;;;5132533;27;20391;-83
2022/09/17 08:06:18;;;;;;;12.43;1.90;;;;;;;;;;5083114;28;20418;-79
2022/09/17 08:08:44;;;;;;;10.47;2.03;;;;;;;;;;5088980;27;20418;-79
2022/09/17 08:11:15;;;;;;;12.27;1.70;;;;;;;;;;5086685;27;20517;-80
2022/09/17 08:13:41;;;;;;;9.20;2.27;;;;;;;;;;5112406;27;20848;-78
2022/09/17 08:16:08;;;;;;;7.60;1.92;;;;;;;;;;5111161;27;20415;-77
2022/09/17 08:18:34;;;;;;;7.80;2.00;;;;;;;;;;5085235;28;20486;-78
2022/09/17 08:21:01;;;;;;;11.45;1.80;;;;;;;;;;5107649;27;20411;-79
2022/09/17 08:23:28;;;;;;;7.90;1.48;;;;;;;;;;5106120;28;20419;-79
2022/09/17 08:25:55;;;;;;;9.00;2.08;;;;;;;;;;5109466;28;20484;-79
2022/09/17 08:28:21;;;;;;;8.25;1.90;;;;;;;;;;5055256;28;20943;-78
2022/09/17 08:30:50;;;;;;;11.43;2.20;;;;;;;;;;5084390;28;20423;-79
2022/09/17 08:33:19;;;;;;;9.82;1.80;;;;;;;;;;5111110;28;20479;-79
2022/09/17 08:35:58;;;;;;;13.60;1.90;;;;;;;;;;5108981;28;20479;-80
2022/09/17 08:38:32;;;;;;;9.57;1.50;;;;;;;;;;5088013;28;20413;-79
2022/09/17 08:41:13;;;;;;;14.75;1.88;;;;;;;;;;5070517;28;20418;-79
2022/09/17 08:43:43;;;;;;;11.60;2.00;;;;;;;;;;5074482;28;20412;-78
2022/09/17 08:46:10;;;;;;;9.88;1.80;;;;;;;;;;5101623;28;20449;-79
2022/09/17 08:48:42;;;;;;;7.67;2.00;;;;;;;;;;5091690;28;20419;-80
2022/09/17 08:51:21;;;;;;;9.23;1.80;;;;;;;;;;5078611;28;20422;-80
2022/09/17 08:53:57;;;;;;;10.07;1.90;;;;;;;;;;5072271;28;20502;-80
2022/09/17 08:56:24;;;;;;;9.33;2.40;;;;;;;;;;5068728;28;20437;-79
2022/09/17 08:58:54;;;;;;;8.68;1.67;;;;;;;;;;5066930;28;20440;-78
2022/09/17 09:01:23;;;;;;;13.73;1.80;;;;;;;;;;5081629;28;20414;-79
2022/09/17 09:04:08;;;;;;;7.03;1.60;;;;;;;;;;5089164;28;20958;-80
2022/09/17 09:06:37;;;;;;;6.65;1.63;;;;;;;;;;5101223;28;20495;-80
2022/09/17 09:09:33;;;;;;;8.88;1.70;;;;;;;;;;5106463;28;20814;-80
2022/09/17 09:12:01;;;;;;;7.55;1.48;;;;;;;;;;5092953;28;20788;-80
2022/09/17 09:14:32;;;;;;;10.97;2.07;;;;;;;;;;5101727;28;20410;-82
2022/09/17 09:17:01;;;;;;;8.93;1.57;;;;;;;;;;5067393;28;20463;-81
2022/09/17 09:19:29;;;;;;;6.85;1.45;;;;;;;;;;5085313;28;20506;-80
2022/09/17 09:21:55;;;;;;;9.80;2.03;;;;;;;;;;5104224;28;20420;-81
2022/09/17 09:24:22;;;;;;;7.10;1.60;;;;;;;;;;5113769;28;20406;-80
2022/09/17 09:26:53;;;;;;;11.82;1.88;;;;;;;;;;5110671;28;20417;-80
2022/09/17 09:29:31;;;;;;;8.98;2.10;;;;;;;;;;5080601;28;20453;-80
2022/09/17 09:32:16;;;;;;;7.13;1.65;;;;;;;;;;5056128;28;20394;-80
2022/09/17 09:34:42;;;;;;;7.33;1.60;;;;;;;;;;5056564;28;20511;-80
2022/09/17 09:37:21;;;;;;;7.28;1.60;;;;;;;;;;5073104;28;20400;-81
2022/09/17 09:39:48;;;;;;;7.80;1.27;;;;;;;;;;5055923;28;20405;-80
2022/09/17 09:42:19;;;;;;;4.77;1.30;;;;;;;;;;5079013;28;20868;-81
2022/09/17 09:44:45;;;;;;;6.00;1.33;;;;;;;;;;5131887;28;20391;-81
2022/09/17 09:47:14;;;;;;;5.57;1.20;;;;;;;;;;5098746;28;20411;-80
2022/09/17 09:49:52;;;;;;;7.03;1.50;;;;;;;;;;5096398;28;20431;-81
2022/09/17 09:52:23;;;;;;;4.90;1.30;;;;;;;;;;5083957;28;20452;-80
2022/09/17 09:54:49;;;;;;;5.72;1.52;;;;;;;;;;5098731;28;20422;-80
2022/09/17 09:57:17;;;;;;;7.60;1.65;;;;;;;;;;5089119;28;20762;-81
2022/09/17 09:59:43;;;;;;;6.13;1.27;;;;;;;;;;5112057;28;20403;-80
2022/09/17 10:02:10;;;;;;;4.80;1.20;;;;;;;;;;5113411;28;21035;-80
2022/09/17 10:04:36;;;;;;;6.63;1.30;;;;;;;;;;5114216;28;20423;-81
2022/09/17 10:07:04;;;;;;;7.68;1.50;;;;;;;;;;5114108;27;20421;-81
2022/09/17 10:09:31;;;;;;;6.50;1.73;;;;;;;;;;5116873;27;20446;-81
2022/09/17 10:12:05;;;;;;;8.73;1.80;;;;;;;;;;5115612;27;20437;-80
2022/09/17 10:14:33;;;;;;;5.82;1.30;;;;;;;;;;5099527;27;20478;-81
2022/09/17 10:17:14;;;;;;;6.82;1.25;;;;;;;;;;5111903;27;20411;-81
2022/09/17 10:19:41;;;;;;;6.93;1.55;;;;;;;;;;5095704;28;20465;-81
2022/09/17 10:22:24;;;;;;;5.28;1.42;;;;;;;;;;5095982;28;20407;-79
2022/09/17 10:24:52;;;;;;;8.57;1.38;;;;;;;;;;5113311;27;20502;-80
2022/09/17 10:27:20;;;;;;;9.00;2.00;;;;;;;;;;5099992;27;20807;-80
2022/09/17 10:29:49;;;;;;;9.70;2.35;;;;;;;;;;5133151;27;20459;-81
2022/09/17 10:32:17;;;;;;;9.35;1.95;;;;;;;;;;5111446;27;20783;-81
2022/09/17 10:34:56;;;;;;;11.00;2.00;;;;;;;;;;5075691;28;20418;-80
2022/09/17 10:37:55;;;;;;;9.57;2.22;;;;;;;;;;5077007;27;21118;-81
2022/09/17 10:40:26;;;;;;;10.32;1.90;;;;;;;;;;5061194;27;20490;-80
2022/09/17 10:43:27;;;;;;;8.77;1.83;;;;;;;;;;5078117;27;20423;-80
2022/09/17 10:45:58;;;;;;;9.18;1.63;;;;;;;;;;5014425;28;20403;-80
2022/09/17 10:48:27;;;;;;;6.28;1.42;;;;;;;;;;5095177;28;20432;-80
2022/09/17 10:50:54;;;;;;;8.13;1.80;;;;;;;;;;5066686;28;20409;-80
2022/09/17 10:53:24;;;;;;;7.80;1.52;;;;;;;;;;5070732;27;20428;-81
2022/09/17 10:55:55;;;;;;;9.50;2.10;;;;;;;;;;5072748;28;20548;-81
2022/09/17 10:58:21;;;;;;;9.57;2.20;;;;;;;;;;5090268;28;20867;-81
2022/09/17 11:00:47;;;;;;;7.35;1.60;;;;;;;;;;5094460;28;20401;-80
2022/09/17 11:03:19;;;;;;;8.00;1.92;;;;;;;;;;5092970;28;20499;-81
2022/09/17 11:05:49;;;;;;;12.13;2.55;;;;;;;;;;5094678;28;20815;-80
2022/09/17 11:08:15;;;;;;;11.30;2.28;;;;;;;;;;5091416;27;20417;-81
2022/09/17 11:10:42;;;;;;;11.85;2.30;;;;;;;;;;5082951;27;20925;-79
2022/09/17 11:13:38;;;;;;;11.45;2.17;;;11.30;99.90;;;;;;5133836;27;20414;-80
2022/09/17 11:16:04;;;;;;;10.80;2.33;;;;;;;;;;5092825;28;20420;-80
2022/09/17 11:18:33;;;;;;;10.03;2.17;;;;;;;;;;5092435;28;20743;-78
2022/09/17 11:21:03;;;;;;;10.65;2.33;;;;;;;;;;5084075;28;20451;-78
2022/09/17 11:23:32;;;;;;;12.02;2.08;;;;;;;;;;5090656;28;20429;-78
2022/09/17 11:26:00;;;;;;;10.03;2.10;;;;;;;;;;5126583;27;20472;-78
2022/09/17 11:28:45;;;;;;;8.25;1.83;;;;;;;;;;5091103;27;20426;-81
2022/09/17 11:31:14;;;;;;;9.63;2.30;;;;;;;;;;5074682;28;20409;-79
2022/09/17 11:33:58;;;;;;;9.38;2.15;;;;;;;;;;5067906;28;20453;-78
2022/09/17 11:36:28;;;;;;;9.68;2.00;;;;;;;;;;5084398;27;20482;-78
2022/09/17 11:38:56;;;;;;;7.78;1.80;;;;;;;;;;5115570;27;20419;-77
2022/09/17 11:41:32;;;;;;;11.13;2.27;;;;;;;;;;5115259;27;20430;-78
2022/09/17 11:44:30;;;;;;;8.05;2.13;;;12.30;99.90;;;;;;5107816;27;20483;-78
2022/09/17 11:47:06;;;;;;;8.75;2.40;;;;;;;;;;5091283;27;20463;-79
2022/09/17 11:49:33;;;;;;;8.85;1.75;;;;;;;;;;5071142;28;20418;-78
2022/09/17 11:52:05;;;;;;;6.97;1.85;;;13.00;99.90;;;;;;5056313;28;20447;-79
2022/09/17 11:54:39;;;;;;;6.60;1.95;;;13.60;99.90;;;;;;5069996;27;20901;-77
2022/09/17 11:57:31;;;;;;;9.50;2.40;;;13.50;99.90;;;;;;5105820;27;20495;-78
2022/09/17 12:00:13;;;;;;;10.75;2.28;;;;;;;;;;5110499;27;20413;-78
2022/09/17 12:02:42;;;;;;;9.80;1.98;;;;;;;;;;5080586;27;20784;-77
2022/09/17 12:05:29;;;;;;;10.30;2.25;;;;;;;;;;5110829;27;20413;-77
2022/09/17 12:07:58;;;;;;;9.95;1.90;;;;;;;;;;5096037;28;20431;-78
2022/09/17 12:10:40;;;;;;;14.00;2.43;;;;;;;;;;5120968;27;20766;-78
2022/09/17 12:13:21;;;;;;;13.20;2.22;;;;;;;;;;5082469;27;20406;-79
2022/09/17 12:15:54;;;;;;;7.38;1.90;;;;;;;;;;5097920;28;20416;-78
2022/09/17 12:18:26;;;;;;;13.75;2.30;;;;;;;;;;5065248;28;20475;-78
2022/09/17 12:20:54;;;;;;;18.00;3.17;;;;;;;;;;5099848;27;20414;-78
2022/09/17 12:23:31;;;;;;;12.60;2.60;;;;;;;;;;5100951;28;20923;-79
2022/09/17 12:26:07;;;;;;;11.60;2.53;;;;;;;;;;5075596;28;20505;-78
2022/09/17 12:28:45;;;;;;;11.07;2.50;;;;;;;;;;5094060;27;20415;-79
2022/09/17 12:31:16;;;;;;;10.27;2.47;;;;;;;;;;5093424;28;20459;-77
2022/09/17 12:33:54;;;;;;;10.90;2.50;;;;;;;;;;5083886;28;20429;-78
2022/09/17 12:36:26;;;;;;;12.32;2.53;;;;;;;;;;5100678;27;20954;-78
2022/09/17 12:38:57;;;;;;;11.82;2.25;;;;;;;;;;5099853;28;20453;-80
2022/09/17 12:41:49;;;;;;;10.85;2.25;;;13.90;99.90;;;;;;5109874;27;20450;-78
2022/09/17 12:44:31;;;;;;;11.15;2.20;;;;;;;;;;5094404;27;20414;-78
2022/09/17 12:47:03;;;;;;;11.02;2.28;;;;;;;;;;5089798;27;20437;-78
2022/09/17 12:49:36;;;;;;;11.25;2.17;;;;;;;;;;5084402;27;20430;-79
2022/09/17 12:52:14;;;;;;;16.23;2.72;;;;;;;;;;5095873;28;20447;-79
2022/09/17 12:54:53;;;;;;;11.27;2.63;;;;;;;;;;5097026;28;20395;-78
2022/09/17 12:57:36;;;;;;;17.30;3.05;;;;;;;;;;5094980;28;20772;-80
2022/09/17 13:00:06;;;;;;;10.55;2.17;;;;;;;;;;5103490;28;20476;-80
2022/09/17 13:02:39;;;;;;;9.63;2.40;;;;;;;;;;5109062;28;20414;-80
2022/09/17 13:05:23;;;;;;;6.65;1.88;;;;;;;;;;5076288;28;20412;-80
2022/09/17 13:07:51;;;;;;;14.13;2.45;;;;;;;;;;5094439;28;20505;-80
2022/09/17 13:10:17;;;;;;;10.20;2.40;;;;;;;;;;5124710;28;20747;-81
2022/09/17 13:13:20;;;;;;;11.80;2.53;;;15.20;99.90;;;;;;5094116;28;20420;-78
2022/09/17 13:15:52;;;;;;;8.95;2.10;;;;;;;;;;5090637;28;20430;-79
2022/09/17 13:18:23;;;;;;;9.43;2.00;;;;;;;;;;5104546;28;20478;-79
2022/09/17 13:21:12;;;;;;;8.77;1.90;;;;;;;;;;5065971;28;20417;-78
2022/09/17 13:23:39;;;;;;;10.45;1.85;;;;;;;;;;5090673;28;20467;-78
2022/09/17 13:26:06;;;;;;;9.50;2.28;;;;;;;;;;5112094;28;20463;-78
2022/09/17 13:28:40;;;;;;;10.77;2.00;;;;;;;;;;5103086;28;20501;-78
2022/09/17 13:31:07;;;;;;;10.68;1.98;;;;;;;;;;5124803;28;20414;-78
2022/09/17 13:33:52;;;;;;;13.57;2.10;;;;;;;;;;5096903;28;20501;-79
2022/09/17 13:36:37;;;;;;;8.32;2.17;;;;;;;;;;5094384;28;20420;-79
2022/09/17 13:39:04;;;;;;;11.48;2.00;;;;;;;;;;5071158;28;20898;-79
2022/09/17 13:41:34;;;;;;;11.75;3.03;;;;;;;;;;5100087;27;20494;-78
2022/09/17 13:44:03;;;;;;;14.60;2.58;;;;;;;;;;5060112;28;20919;-78
2022/09/17 13:46:32;;;;;;;8.88;2.13;;;;;;;;;;5111845;27;20416;-78
2022/09/17 13:49:03;;;;;;;15.48;2.75;;;;;;;;;;5122092;27;20493;-80
2022/09/17 13:51:32;;;;;;;14.48;3.20;;;;;;;;;;5108729;28;20818;-79
2022/09/17 13:53:59;;;;;;;14.13;2.72;;;;;;;;;;5076630;28;20477;-78
2022/09/17 13:56:35;;;;;;;10.45;2.50;;;;;;;;;;5087805;27;20420;-77
2022/09/17 13:59:08;;;;;;;11.77;2.58;;;13.00;99.90;;;;;;5072190;28;20412;-78
2022/09/17 14:01:53;;;;;;;12.82;2.70;;;;;;;;;;5121944;27;20905;-78
2022/09/17 14:04:37;;;;;;;10.75;2.33;;;;;;;;;;5130738;27;20850;-77
2022/09/17 14:07:33;;;;;;;12.57;2.58;;;13.30;99.90;;;;;;5114227;27;20774;-77
2022/09/17 14:10:19;;;;;;;13.50;2.78;;;13.00;99.90;;;;;;5083917;27;20509;-74
2022/09/17 14:12:51;;;;;;;11.90;2.42;;;;;;;;;;5112734;27;20443;-73
2022/09/17 14:15:29;;;;;;;10.68;2.75;;;;;;;;;;5067049;27;20419;-73
2022/09/17 14:17:57;;;;;;;11.47;2.90;;;;;;;;;;5134933;27;20492;-74
2022/09/17 14:20:24;;;;;;;10.93;2.30;;;;;;;;;;5108906;27;20743;-74
2022/09/17 14:22:57;;;;;;;9.57;2.30;;;;;;;;;;5106749;27;20438;-73
2022/09/17 14:25:36;;;;;;;10.25;2.25;;;12.80;99.90;;;;;;5110468;27;20418;-73
2022/09/17 14:28:16;;;;;;;12.00;2.58;;;;;;;;;;5133492;27;20426;-73
2022/09/17 14:30:45;;;;;;;11.27;2.60;;;;;;;;;;5108025;28;20478;-72
2022/09/17 14:33:19;;;;;;;11.75;2.70;;;11.60;99.90;;;;;;5111022;27;20493;-74
2022/09/17 14:35:46;;;;;;;13.80;2.35;;;;;;;;;;5114186;27;20535;-73
2022/09/17 14:38:19;;;;;;;10.88;2.33;;;;;;;;;;5083537;28;20424;-73
2022/09/17 14:40:47;;;;;;;8.88;1.90;;;;;;;;;;5079012;28;20396;-74